sensor_id;sensor_type;location;lat;lon;timestamp;P1;durP1;ratioP1;P2;durP2;ratioP2
75971;SDS011;64651;47.540;19.088;2023-07-16T00:02:40;22.30;;;18.80;;
75971;SDS011;64651;47.540;19.088;2023-07-16T00:07:43;21.20;;;18.77;;
75971;SDS011;64651;47.540;19.088;2023-07-16T00:12:45;24.90;;;19.00;;
75971;SDS011;64651;47.540;19.088;2023-07-16T00:17:47;21.97;;;18.43;;
75971;SDS011;64651;47.540;19.088;2023-07-16T00:22:50;21.60;;;18.67;;
75971;SDS011;64651;47.540;19.088;2023-07-16T00:27:52;21.60;;;19.30;;
75971;SDS011;64651;47.540;19.088;2023-07-16T00:32:55;22.17;;;19.17;;
75971;SDS011;64651;47.540;19.088;2023-07-16T00:37:57;22.23;;;18.98;;
75971;SDS011;64651;47.540;19.088;2023-07-16T00:42:59;23.93;;;19.23;;
75971;SDS011;64651;47.540;19.088;2023-07-16T00:48:01;22.05;;;19.65;;
75971;SDS011;64651;47.540;19.088;2023-07-16T00:53:04;23.17;;;18.67;;
75971;SDS011;64651;47.540;19.088;2023-07-16T00:58:07;22.90;;;19.35;;
75971;SDS011;64651;47.540;19.088;2023-07-16T01:03:11;21.98;;;18.20;;
75971;SDS011;64651;47.540;19.088;2023-07-16T01:08:16;21.77;;;18.17;;
75971;SDS011;64651;47.540;19.088;2023-07-16T01:13:28;23.87;;;17.67;;
75971;SDS011;64651;47.540;19.088;2023-07-16T01:18:30;21.73;;;18.23;;
75971;SDS011;64651;47.540;19.088;2023-07-16T01:29:18;20.48;;;17.80;;
75971;SDS011;64651;47.540;19.088;2023-07-16T01:34:32;20.97;;;18.10;;
75971;SDS011;64651;47.540;19.088;2023-07-16T01:39:36;20.85;;;17.50;;
75971;SDS011;64651;47.540;19.088;2023-07-16T01:44:39;20.07;;;17.00;;
75971;SDS011;64651;47.540;19.088;2023-07-16T01:49:41;20.58;;;17.35;;
75971;SDS011;64651;47.540;19.088;2023-07-16T01:54:44;21.70;;;17.52;;
75971;SDS011;64651;47.540;19.088;2023-07-16T01:59:46;20.60;;;17.27;;
75971;SDS011;64651;47.540;19.088;2023-07-16T02:04:48;21.73;;;17.30;;
75971;SDS011;64651;47.540;19.088;2023-07-16T02:09:51;19.43;;;16.37;;
75971;SDS011;64651;47.540;19.088;2023-07-16T02:14:53;17.42;;;15.20;;
75971;SDS011;64651;47.540;19.088;2023-07-16T02:19:55;18.60;;;16.25;;
75971;SDS011;64651;47.540;19.088;2023-07-16T02:24:57;18.77;;;16.40;;
75971;SDS011;64651;47.540;19.088;2023-07-16T02:30:00;18.92;;;14.70;;
75971;SDS011;64651;47.540;19.088;2023-07-16T02:35:02;18.73;;;14.87;;
75971;SDS011;64651;47.540;19.088;2023-07-16T02:40:05;19.02;;;14.43;;
75971;SDS011;64651;47.540;19.088;2023-07-16T02:45:08;18.50;;;14.45;;
75971;SDS011;64651;47.540;19.088;2023-07-16T02:50:11;16.43;;;14.43;;
75971;SDS011;64651;47.540;19.088;2023-07-16T02:55:13;18.45;;;13.82;;
75971;SDS011;64651;47.540;19.088;2023-07-16T03:00:15;18.40;;;13.57;;
75971;SDS011;64651;47.540;19.088;2023-07-16T03:05:18;16.25;;;13.65;;
75971;SDS011;64651;47.540;19.088;2023-07-16T03:10:20;17.77;;;13.23;;
75971;SDS011;64651;47.540;19.088;2023-07-16T03:15:23;17.23;;;13.00;;
75971;SDS011;64651;47.540;19.088;2023-07-16T03:20:25;18.60;;;13.93;;
75971;SDS011;64651;47.540;19.088;2023-07-16T03:25:27;16.83;;;12.70;;
75971;SDS011;64651;47.540;19.088;2023-07-16T03:30:30;15.80;;;12.57;;
75971;SDS011;64651;47.540;19.088;2023-07-16T03:35:33;15.70;;;12.90;;
75971;SDS011;64651;47.540;19.088;2023-07-16T03:40:35;15.43;;;12.53;;
75971;SDS011;64651;47.540;19.088;2023-07-16T03:45:37;17.67;;;12.00;;
75971;SDS011;64651;47.540;19.088;2023-07-16T03:50:41;17.30;;;11.20;;
75971;SDS011;64651;47.540;19.088;2023-07-16T03:55:44;14.93;;;11.45;;
75971;SDS011;64651;47.540;19.088;2023-07-16T04:00:46;15.85;;;11.40;;
75971;SDS011;64651;47.540;19.088;2023-07-16T04:05:48;15.97;;;10.73;;
75971;SDS011;64651;47.540;19.088;2023-07-16T04:10:50;15.23;;;11.12;;
75971;SDS011;64651;47.540;19.088;2023-07-16T04:15:54;15.90;;;11.57;;
75971;SDS011;64651;47.540;19.088;2023-07-16T04:20:59;15.27;;;11.15;;
75971;SDS011;64651;47.540;19.088;2023-07-16T04:26:01;16.12;;;11.57;;
75971;SDS011;64651;47.540;19.088;2023-07-16T04:31:03;15.23;;;11.20;;
75971;SDS011;64651;47.540;19.088;2023-07-16T04:36:05;15.52;;;11.32;;
75971;SDS011;64651;47.540;19.088;2023-07-16T04:41:07;14.13;;;11.13;;
75971;SDS011;64651;47.540;19.088;2023-07-16T04:46:10;14.65;;;10.90;;
75971;SDS011;64651;47.540;19.088;2023-07-16T04:51:14;17.58;;;10.50;;
75971;SDS011;64651;47.540;19.088;2023-07-16T04:56:16;15.00;;;10.93;;
75971;SDS011;64651;47.540;19.088;2023-07-16T05:01:18;14.65;;;12.05;;
75971;SDS011;64651;47.540;19.088;2023-07-16T05:06:22;15.90;;;11.10;;
75971;SDS011;64651;47.540;19.088;2023-07-16T05:11:24;13.45;;;10.40;;
75971;SDS011;64651;47.540;19.088;2023-07-16T05:16:28;13.82;;;10.73;;
75971;SDS011;64651;47.540;19.088;2023-07-16T05:21:30;14.13;;;10.20;;
75971;SDS011;64651;47.540;19.088;2023-07-16T05:26:32;14.35;;;10.45;;
75971;SDS011;64651;47.540;19.088;2023-07-16T05:31:35;14.27;;;10.40;;
75971;SDS011;64651;47.540;19.088;2023-07-16T05:36:37;13.57;;;10.25;;
75971;SDS011;64651;47.540;19.088;2023-07-16T05:41:39;16.70;;;10.55;;
75971;SDS011;64651;47.540;19.088;2023-07-16T05:46:42;11.50;;;9.63;;
75971;SDS011;64651;47.540;19.088;2023-07-16T05:51:45;15.18;;;10.50;;
75971;SDS011;64651;47.540;19.088;2023-07-16T05:56:47;13.73;;;10.37;;
75971;SDS011;64651;47.540;19.088;2023-07-16T06:01:49;14.95;;;10.65;;
75971;SDS011;64651;47.540;19.088;2023-07-16T06:06:51;13.35;;;10.30;;
75971;SDS011;64651;47.540;19.088;2023-07-16T06:11:54;13.23;;;9.90;;
75971;SDS011;64651;47.540;19.088;2023-07-16T06:16:56;12.43;;;9.70;;
75971;SDS011;64651;47.540;19.088;2023-07-16T06:21:58;14.00;;;9.80;;
75971;SDS011;64651;47.540;19.088;2023-07-16T06:27:00;13.65;;;9.55;;
75971;SDS011;64651;47.540;19.088;2023-07-16T06:32:02;12.52;;;9.68;;
75971;SDS011;64651;47.540;19.088;2023-07-16T06:37:05;14.07;;;10.10;;
75971;SDS011;64651;47.540;19.088;2023-07-16T06:42:07;14.23;;;10.35;;
75971;SDS011;64651;47.540;19.088;2023-07-16T06:47:10;12.60;;;9.70;;
75971;SDS011;64651;47.540;19.088;2023-07-16T06:52:21;12.27;;;9.82;;
75971;SDS011;64651;47.540;19.088;2023-07-16T06:57:24;12.60;;;10.13;;
75971;SDS011;64651;47.540;19.088;2023-07-16T07:02:27;14.77;;;9.83;;
75971;SDS011;64651;47.540;19.088;2023-07-16T07:07:29;13.30;;;9.68;;
75971;SDS011;64651;47.540;19.088;2023-07-16T07:12:31;12.77;;;9.70;;
75971;SDS011;64651;47.540;19.088;2023-07-16T07:17:38;13.10;;;9.55;;
75971;SDS011;64651;47.540;19.088;2023-07-16T07:22:41;13.45;;;9.70;;
75971;SDS011;64651;47.540;19.088;2023-07-16T07:27:44;12.57;;;9.37;;
75971;SDS011;64651;47.540;19.088;2023-07-16T07:32:49;12.93;;;9.35;;
75971;SDS011;64651;47.540;19.088;2023-07-16T07:37:51;14.17;;;9.83;;
75971;SDS011;64651;47.540;19.088;2023-07-16T07:42:53;14.15;;;10.10;;
75971;SDS011;64651;47.540;19.088;2023-07-16T07:47:55;11.98;;;9.60;;
75971;SDS011;64651;47.540;19.088;2023-07-16T07:52:58;12.23;;;9.20;;
75971;SDS011;64651;47.540;19.088;2023-07-16T07:58:00;13.57;;;9.88;;
75971;SDS011;64651;47.540;19.088;2023-07-16T08:03:02;11.23;;;9.37;;
75971;SDS011;64651;47.540;19.088;2023-07-16T08:08:05;12.70;;;10.05;;
75971;SDS011;64651;47.540;19.088;2023-07-16T08:13:07;12.05;;;10.52;;
75971;SDS011;64651;47.540;19.088;2023-07-16T08:18:09;11.87;;;10.67;;
75971;SDS011;64651;47.540;19.088;2023-07-16T08:23:15;14.05;;;12.00;;
75971;SDS011;64651;47.540;19.088;2023-07-16T08:28:18;14.40;;;13.00;;
75971;SDS011;64651;47.540;19.088;2023-07-16T08:33:20;14.48;;;13.15;;
75971;SDS011;64651;47.540;19.088;2023-07-16T08:38:26;13.98;;;12.68;;
75971;SDS011;64651;47.540;19.088;2023-07-16T08:43:28;16.37;;;14.97;;
75971;SDS011;64651;47.540;19.088;2023-07-16T08:48:31;16.15;;;14.48;;
75971;SDS011;64651;47.540;19.088;2023-07-16T08:53:34;17.83;;;16.03;;
75971;SDS011;64651;47.540;19.088;2023-07-16T08:58:37;18.17;;;16.73;;
75971;SDS011;64651;47.540;19.088;2023-07-16T09:03:40;19.50;;;18.00;;
75971;SDS011;64651;47.540;19.088;2023-07-16T09:08:46;17.53;;;15.93;;
75971;SDS011;64651;47.540;19.088;2023-07-16T09:13:48;18.35;;;16.75;;
75971;SDS011;64651;47.540;19.088;2023-07-16T09:18:51;18.27;;;16.67;;
75971;SDS011;64651;47.540;19.088;2023-07-16T09:23:56;17.10;;;15.50;;
75971;SDS011;64651;47.540;19.088;2023-07-16T09:28:58;18.27;;;16.67;;
75971;SDS011;64651;47.540;19.088;2023-07-16T09:34:01;17.60;;;16.10;;
75971;SDS011;64651;47.540;19.088;2023-07-16T09:39:03;18.23;;;16.62;;
75971;SDS011;64651;47.540;19.088;2023-07-16T09:44:05;20.70;;;18.97;;
75971;SDS011;64651;47.540;19.088;2023-07-16T09:49:08;20.65;;;18.60;;
75971;SDS011;64651;47.540;19.088;2023-07-16T09:54:14;18.17;;;16.67;;
75971;SDS011;64651;47.540;19.088;2023-07-16T09:59:17;19.27;;;17.50;;
75971;SDS011;64651;47.540;19.088;2023-07-16T10:04:24;20.25;;;18.37;;
75971;SDS011;64651;47.540;19.088;2023-07-16T10:20:06;22.55;;;20.62;;
75971;SDS011;64651;47.540;19.088;2023-07-16T10:30:20;23.58;;;21.52;;
75971;SDS011;64651;47.540;19.088;2023-07-16T10:35:24;23.80;;;21.80;;
75971;SDS011;64651;47.540;19.088;2023-07-16T10:40:27;24.70;;;22.48;;
75971;SDS011;64651;47.540;19.088;2023-07-16T10:45:34;23.20;;;21.20;;
75971;SDS011;64651;47.540;19.088;2023-07-16T10:50:38;23.87;;;21.87;;
75971;SDS011;64651;47.540;19.088;2023-07-16T10:55:40;22.17;;;20.37;;
75971;SDS011;64651;47.540;19.088;2023-07-16T11:00:43;21.30;;;19.50;;
75971;SDS011;64651;47.540;19.088;2023-07-16T11:05:46;22.60;;;20.80;;
75971;SDS011;64651;47.540;19.088;2023-07-16T11:10:58;22.73;;;20.75;;
75971;SDS011;64651;47.540;19.088;2023-07-16T11:16:07;25.57;;;23.40;;
75971;SDS011;64651;47.540;19.088;2023-07-16T11:21:11;24.42;;;22.45;;
75971;SDS011;64651;47.540;19.088;2023-07-16T11:26:14;23.23;;;21.13;;
75971;SDS011;64651;47.540;19.088;2023-07-16T11:31:17;22.67;;;20.88;;
75971;SDS011;64651;47.540;19.088;2023-07-16T11:36:22;26.42;;;24.42;;
75971;SDS011;64651;47.540;19.088;2023-07-16T11:41:24;26.77;;;24.80;;
75971;SDS011;64651;47.540;19.088;2023-07-16T11:46:30;24.65;;;22.85;;
75971;SDS011;64651;47.540;19.088;2023-07-16T11:51:38;27.57;;;25.47;;
75971;SDS011;64651;47.540;19.088;2023-07-16T11:56:41;25.80;;;23.75;;
75971;SDS011;64651;47.540;19.088;2023-07-16T12:01:44;24.63;;;22.67;;
75971;SDS011;64651;47.540;19.088;2023-07-16T12:06:48;25.20;;;23.20;;
75971;SDS011;64651;47.540;19.088;2023-07-16T12:11:51;25.67;;;23.77;;
75971;SDS011;64651;47.540;19.088;2023-07-16T12:16:53;23.97;;;22.07;;
75971;SDS011;64651;47.540;19.088;2023-07-16T12:21:56;24.30;;;22.20;;
75971;SDS011;64651;47.540;19.088;2023-07-16T12:27:00;23.10;;;21.12;;
75971;SDS011;64651;47.540;19.088;2023-07-16T12:32:03;21.67;;;19.73;;
75971;SDS011;64651;47.540;19.088;2023-07-16T12:37:05;23.45;;;21.55;;
75971;SDS011;64651;47.540;19.088;2023-07-16T12:42:08;21.40;;;19.50;;
75971;SDS011;64651;47.540;19.088;2023-07-16T12:47:11;19.10;;;17.27;;
75971;SDS011;64651;47.540;19.088;2023-07-16T12:52:13;18.60;;;17.00;;
75971;SDS011;64651;47.540;19.088;2023-07-16T12:57:20;20.93;;;19.20;;
75971;SDS011;64651;47.540;19.088;2023-07-16T13:02:22;20.77;;;19.02;;
75971;SDS011;64651;47.540;19.088;2023-07-16T13:07:24;21.57;;;19.70;;
75971;SDS011;64651;47.540;19.088;2023-07-16T13:12:27;20.92;;;19.23;;
75971;SDS011;64651;47.540;19.088;2023-07-16T13:17:29;20.58;;;18.87;;
75971;SDS011;64651;47.540;19.088;2023-07-16T13:22:31;18.33;;;16.63;;
75971;SDS011;64651;47.540;19.088;2023-07-16T13:27:35;20.30;;;18.58;;
75971;SDS011;64651;47.540;19.088;2023-07-16T13:32:37;20.07;;;18.27;;
75971;SDS011;64651;47.540;19.088;2023-07-16T13:37:39;20.67;;;18.87;;
75971;SDS011;64651;47.540;19.088;2023-07-16T13:42:43;19.05;;;17.42;;
75971;SDS011;64651;47.540;19.088;2023-07-16T13:47:45;19.50;;;17.90;;
75971;SDS011;64651;47.540;19.088;2023-07-16T13:52:48;18.73;;;16.90;;
75971;SDS011;64651;47.540;19.088;2023-07-16T13:57:50;18.20;;;16.60;;
75971;SDS011;64651;47.540;19.088;2023-07-16T14:02:53;19.48;;;17.70;;
75971;SDS011;64651;47.540;19.088;2023-07-16T14:07:55;19.98;;;18.27;;
75971;SDS011;64651;47.540;19.088;2023-07-16T14:12:57;20.67;;;18.97;;
75971;SDS011;64651;47.540;19.088;2023-07-16T14:18:00;19.55;;;17.75;;
75971;SDS011;64651;47.540;19.088;2023-07-16T14:23:02;19.40;;;17.70;;
75971;SDS011;64651;47.540;19.088;2023-07-16T14:28:05;17.90;;;16.33;;
75971;SDS011;64651;47.540;19.088;2023-07-16T14:33:07;18.10;;;16.40;;
75971;SDS011;64651;47.540;19.088;2023-07-16T14:38:10;16.47;;;13.63;;
75971;SDS011;64651;47.540;19.088;2023-07-16T14:43:12;17.67;;;16.02;;
75971;SDS011;64651;47.540;19.088;2023-07-16T14:48:14;16.23;;;14.77;;
75971;SDS011;64651;47.540;19.088;2023-07-16T14:53:16;16.10;;;14.50;;
75971;SDS011;64651;47.540;19.088;2023-07-16T14:58:19;15.73;;;14.23;;
75971;SDS011;64651;47.540;19.088;2023-07-16T15:03:22;14.20;;;12.80;;
75971;SDS011;64651;47.540;19.088;2023-07-16T15:08:26;17.35;;;15.75;;
75971;SDS011;64651;47.540;19.088;2023-07-16T15:13:28;17.53;;;15.93;;
75971;SDS011;64651;47.540;19.088;2023-07-16T15:18:31;21.02;;;19.17;;
75971;SDS011;64651;47.540;19.088;2023-07-16T15:23:33;20.02;;;18.25;;
75971;SDS011;64651;47.540;19.088;2023-07-16T15:28:35;19.10;;;17.37;;
75971;SDS011;64651;47.540;19.088;2023-07-16T15:33:39;20.48;;;18.87;;
75971;SDS011;64651;47.540;19.088;2023-07-16T15:38:42;21.90;;;20.00;;
75971;SDS011;64651;47.540;19.088;2023-07-16T15:43:44;19.83;;;18.12;;
75971;SDS011;64651;47.540;19.088;2023-07-16T15:48:50;21.20;;;19.30;;
75971;SDS011;64651;47.540;19.088;2023-07-16T15:53:53;19.87;;;18.17;;
75971;SDS011;64651;47.540;19.088;2023-07-16T15:58:56;19.48;;;17.60;;
75971;SDS011;64651;47.540;19.088;2023-07-16T16:03:58;19.13;;;17.40;;
75971;SDS011;64651;47.540;19.088;2023-07-16T16:09:00;18.08;;;16.37;;
75971;SDS011;64651;47.540;19.088;2023-07-16T16:14:03;16.90;;;15.40;;
75971;SDS011;64651;47.540;19.088;2023-07-16T16:19:11;18.97;;;17.37;;
75971;SDS011;64651;47.540;19.088;2023-07-16T16:24:14;18.05;;;16.45;;
75971;SDS011;64651;47.540;19.088;2023-07-16T16:29:16;17.67;;;15.97;;
75971;SDS011;64651;47.540;19.088;2023-07-16T16:34:18;17.23;;;15.57;;
75971;SDS011;64651;47.540;19.088;2023-07-16T16:39:21;17.58;;;15.95;;
75971;SDS011;64651;47.540;19.088;2023-07-16T16:44:23;16.83;;;15.10;;
75971;SDS011;64651;47.540;19.088;2023-07-16T16:49:25;17.92;;;16.02;;
75971;SDS011;64651;47.540;19.088;2023-07-16T16:54:27;16.27;;;14.67;;
75971;SDS011;64651;47.540;19.088;2023-07-16T16:59:33;16.60;;;14.55;;
75971;SDS011;64651;47.540;19.088;2023-07-16T17:04:37;15.63;;;13.90;;
75971;SDS011;64651;47.540;19.088;2023-07-16T17:09:43;15.67;;;13.87;;
75971;SDS011;64651;47.540;19.088;2023-07-16T17:14:45;15.43;;;13.93;;
75971;SDS011;64651;47.540;19.088;2023-07-16T17:19:48;17.50;;;14.90;;
75971;SDS011;64651;47.540;19.088;2023-07-16T17:24:56;16.58;;;14.82;;
75971;SDS011;64651;47.540;19.088;2023-07-16T17:29:58;16.15;;;13.95;;
75971;SDS011;64651;47.540;19.088;2023-07-16T17:35:01;14.97;;;13.40;;
75971;SDS011;64651;47.540;19.088;2023-07-16T17:40:03;16.23;;;14.57;;
75971;SDS011;64651;47.540;19.088;2023-07-16T17:45:06;15.50;;;13.03;;
75971;SDS011;64651;47.540;19.088;2023-07-16T17:50:09;14.20;;;12.63;;
75971;SDS011;64651;47.540;19.088;2023-07-16T17:55:11;14.93;;;13.23;;
75971;SDS011;64651;47.540;19.088;2023-07-16T18:00:13;14.90;;;12.80;;
75971;SDS011;64651;47.540;19.088;2023-07-16T18:05:19;14.00;;;12.50;;
75971;SDS011;64651;47.540;19.088;2023-07-16T18:10:22;16.50;;;13.43;;
75971;SDS011;64651;47.540;19.088;2023-07-16T18:15:25;15.35;;;12.75;;
75971;SDS011;64651;47.540;19.088;2023-07-16T18:20:27;14.68;;;13.18;;
75971;SDS011;64651;47.540;19.088;2023-07-16T18:25:30;14.53;;;12.73;;
75971;SDS011;64651;47.540;19.088;2023-07-16T18:30:32;15.68;;;13.43;;
75971;SDS011;64651;47.540;19.088;2023-07-16T18:35:35;14.77;;;13.10;;
75971;SDS011;64651;47.540;19.088;2023-07-16T18:40:38;17.92;;;13.70;;
75971;SDS011;64651;47.540;19.088;2023-07-16T18:45:40;16.12;;;12.73;;
75971;SDS011;64651;47.540;19.088;2023-07-16T18:50:43;18.53;;;14.50;;
75971;SDS011;64651;47.540;19.088;2023-07-16T18:55:48;18.30;;;13.32;;
75971;SDS011;64651;47.540;19.088;2023-07-16T19:00:51;15.17;;;13.50;;
75971;SDS011;64651;47.540;19.088;2023-07-16T19:05:53;16.73;;;12.15;;
75971;SDS011;64651;47.540;19.088;2023-07-16T19:10:56;16.23;;;13.88;;
75971;SDS011;64651;47.540;19.088;2023-07-16T19:15:58;15.00;;;12.57;;
75971;SDS011;64651;47.540;19.088;2023-07-16T19:21:00;15.35;;;12.80;;
75971;SDS011;64651;47.540;19.088;2023-07-16T19:26:03;16.20;;;13.67;;
75971;SDS011;64651;47.540;19.088;2023-07-16T19:31:05;16.62;;;12.68;;
75971;SDS011;64651;47.540;19.088;2023-07-16T19:36:07;17.92;;;14.05;;
75971;SDS011;64651;47.540;19.088;2023-07-16T19:41:15;18.30;;;13.17;;
75971;SDS011;64651;47.540;19.088;2023-07-16T19:46:18;17.83;;;15.23;;
75971;SDS011;64651;47.540;19.088;2023-07-16T19:51:20;15.93;;;14.23;;
75971;SDS011;64651;47.540;19.088;2023-07-16T19:56:23;17.73;;;14.40;;
75971;SDS011;64651;47.540;19.088;2023-07-16T20:01:25;17.87;;;15.32;;
75971;SDS011;64651;47.540;19.088;2023-07-16T20:06:27;18.70;;;14.53;;
75971;SDS011;64651;47.540;19.088;2023-07-16T20:11:30;19.30;;;15.23;;
75971;SDS011;64651;47.540;19.088;2023-07-16T20:16:35;20.07;;;14.90;;
75971;SDS011;64651;47.540;19.088;2023-07-16T20:21:40;20.60;;;15.30;;
75971;SDS011;64651;47.540;19.088;2023-07-16T20:26:43;16.90;;;15.00;;
75971;SDS011;64651;47.540;19.088;2023-07-16T20:31:45;19.07;;;14.67;;
75971;SDS011;64651;47.540;19.088;2023-07-16T20:36:47;20.52;;;16.25;;
75971;SDS011;64651;47.540;19.088;2023-07-16T20:41:49;17.70;;;15.37;;
75971;SDS011;64651;47.540;19.088;2023-07-16T20:46:51;18.77;;;15.55;;
75971;SDS011;64651;47.540;19.088;2023-07-16T20:51:54;20.88;;;16.37;;
75971;SDS011;64651;47.540;19.088;2023-07-16T20:56:56;18.60;;;16.27;;
75971;SDS011;64651;47.540;19.088;2023-07-16T21:02:00;20.27;;;17.95;;
75971;SDS011;64651;47.540;19.088;2023-07-16T21:07:02;19.33;;;16.50;;
75971;SDS011;64651;47.540;19.088;2023-07-16T21:12:04;19.73;;;17.20;;
75971;SDS011;64651;47.540;19.088;2023-07-16T21:17:07;21.08;;;18.12;;
75971;SDS011;64651;47.540;19.088;2023-07-16T21:22:09;20.43;;;18.23;;
75971;SDS011;64651;47.540;19.088;2023-07-16T21:27:11;25.88;;;18.12;;
75971;SDS011;64651;47.540;19.088;2023-07-16T21:32:13;21.03;;;18.47;;
75971;SDS011;64651;47.540;19.088;2023-07-16T21:37:16;22.50;;;18.50;;
75971;SDS011;64651;47.540;19.088;2023-07-16T21:42:18;21.67;;;18.42;;
75971;SDS011;64651;47.540;19.088;2023-07-16T21:47:20;21.33;;;19.00;;
75971;SDS011;64651;47.540;19.088;2023-07-16T21:52:23;20.90;;;18.70;;
75971;SDS011;64651;47.540;19.088;2023-07-16T21:57:25;21.83;;;19.27;;
75971;SDS011;64651;47.540;19.088;2023-07-16T22:02:27;21.02;;;18.77;;
75971;SDS011;64651;47.540;19.088;2023-07-16T22:07:30;21.45;;;19.15;;
75971;SDS011;64651;47.540;19.088;2023-07-16T22:12:33;22.53;;;20.23;;
75971;SDS011;64651;47.540;19.088;2023-07-16T22:17:35;22.65;;;20.25;;
75971;SDS011;64651;47.540;19.088;2023-07-16T22:22:39;23.80;;;19.37;;
75971;SDS011;64651;47.540;19.088;2023-07-16T22:27:42;20.52;;;18.33;;
75971;SDS011;64651;47.540;19.088;2023-07-16T22:32:44;21.08;;;18.77;;
75971;SDS011;64651;47.540;19.088;2023-07-16T22:37:46;21.57;;;19.37;;
75971;SDS011;64651;47.540;19.088;2023-07-16T22:42:48;22.42;;;19.23;;
75971;SDS011;64651;47.540;19.088;2023-07-16T22:47:50;20.70;;;18.23;;
75971;SDS011;64651;47.540;19.088;2023-07-16T22:52:53;19.05;;;17.05;;
75971;SDS011;64651;47.540;19.088;2023-07-16T22:57:55;20.37;;;17.33;;
75971;SDS011;64651;47.540;19.088;2023-07-16T23:02:58;22.37;;;17.07;;
75971;SDS011;64651;47.540;19.088;2023-07-16T23:08:00;20.37;;;17.37;;
75971;SDS011;64651;47.540;19.088;2023-07-16T23:13:05;19.47;;;17.03;;
75971;SDS011;64651;47.540;19.088;2023-07-16T23:18:07;19.70;;;17.05;;
75971;SDS011;64651;47.540;19.088;2023-07-16T23:23:10;20.02;;;17.42;;
75971;SDS011;64651;47.540;19.088;2023-07-16T23:28:12;19.83;;;17.73;;
75971;SDS011;64651;47.540;19.088;2023-07-16T23:33:14;18.90;;;16.90;;
75971;SDS011;64651;47.540;19.088;2023-07-16T23:38:17;20.97;;;17.30;;
75971;SDS011;64651;47.540;19.088;2023-07-16T23:43:19;20.80;;;18.05;;
75971;SDS011;64651;47.540;19.088;2023-07-16T23:48:21;21.35;;;19.12;;
75971;SDS011;64651;47.540;19.088;2023-07-16T23:53:23;21.23;;;18.77;;
75971;SDS011;64651;47.540;19.088;2023-07-16T23:58:26;22.37;;;19.83;;
